9°C Temp
-7°C Dewpoint
32% Humidity
Temperature
14 KM/H
9 MPH
8 KTS
360°
Due North

Wind Speed
Clear
Conditions
Pressure 1026.92 (hPa) - 30.32 (in)
Visibility 6.2 (mi) - 10.0 (km)

Current Conditions
LSZA
Location 41(km)
Metar :LSZA 042020Z AUTO 36008KT 9999 NSC 09/M07 Q1027
Sat 4th February 21:20 pm

Airport
  Metar Aviation API Data Provided by https://www.checkwx.com/ PHP scripts by weather34.com ©2023